Time;durP1;ratioP1;P1;durP2;ratioP2;P2;SDS_P1;SDS_P2;PMS_P1;PMS_P2;Temp;Humidity;BMP_temperature;BMP_pressure;BME280_temperature;BME280_humidity;BME280_pressure;Samples;Min_cycle;Max_cycle;Signal;HPM_P1;HPM_P2
2022/11/15 00:03:35;;;;;;;1.83;1.07;;;;;;;;;;21080119;28;20934;-66
2022/11/15 00:13:56;;;;;;;2.93;1.40;;;8.90;99.90;;;;;;21079345;28;20622;-65
2022/11/15 00:24:17;;;;;;;3.23;1.70;;;;;;;;;;21077441;28;20216;-65
2022/11/15 00:34:37;;;;;;;1.70;0.93;;;;;;;;;;21077084;28;20293;-64
2022/11/15 00:44:57;;;;;;;2.80;1.30;;;;;;;;;;21076337;28;20220;-65
2022/11/15 00:55:18;;;;;;;2.50;1.40;;;8.90;99.90;;;;;;21060586;28;20258;-66
2022/11/15 01:05:39;;;;;;;2.93;1.70;;;;;;;;;;21074593;28;20220;-66
2022/11/15 01:16:05;;;;;;;1.60;1.00;;;8.70;99.90;;;;;;21074084;28;20699;-65
2022/11/15 01:26:25;;;;;;;2.50;1.20;;;8.90;99.90;;;;;;21073233;28;20262;-66
2022/11/15 01:36:46;;;;;;;1.20;0.90;;;;;;;;;;21072353;28;20253;-65
2022/11/15 01:47:09;;;;;;;1.60;0.90;;;;;;;;;;21070735;28;20236;-65
2022/11/15 01:57:29;;;;;;;1.60;1.00;;;;;;;;;;21070731;28;20675;-65
2022/11/15 02:07:50;;;;;;;1.77;1.30;;;8.60;99.90;;;;;;21069402;28;20236;-65
2022/11/15 02:18:11;;;;;;;1.90;1.13;;;;;;;;;;21069016;28;20613;-66
2022/11/15 02:28:46;;;;;;;1.80;0.90;;;;;;;;;;21068234;28;20251;-65
2022/11/15 02:39:17;;;;;;;1.40;0.87;;;8.90;99.90;;;;;;21036188;28;20273;-65
2022/11/15 02:49:39;;;;;;;2.07;1.03;;;;;;;;;;21066247;28;20278;-66
2022/11/15 03:00:09;;;;;;;1.47;0.93;;;9.10;99.90;;;;;;21048407;28;20246;-65
2022/11/15 03:10:40;;;;;;;2.50;1.10;;;;;;;;;;21066620;28;20216;-65
2022/11/15 03:21:03;;;;;;;2.20;1.17;;;;;;;;;;21065156;28;20228;-65
2022/11/15 03:31:46;;;;;;;1.40;0.80;;;8.90;99.90;;;;;;21065843;28;20204;-65
2022/11/15 03:42:16;;;;;;;1.47;0.93;;;;;;;;;;20926449;22;20673;-67
2022/11/15 03:52:37;;;;;;;1.90;0.90;;;;;;;;;;20897722;28;20267;-67
2022/11/15 04:02:57;;;;;;;1.13;0.83;;;;;;;;;;20911660;28;20861;-68
2022/11/15 04:13:18;;;;;;;1.57;0.97;;;;;;;;;;20912041;28;20236;-67
2022/11/15 04:24:11;;;;;;;1.67;0.80;;;;;;;;;;20911727;28;20218;-67
2022/11/15 04:34:27;;;;;;;1.60;0.70;;;;;;;;;;20889968;28;20287;-67
2022/11/15 04:44:47;;;;;;;1.50;0.90;;;;;;;;;;20901264;28;20863;-67
2022/11/15 04:55:08;;;;;;;1.63;0.90;;;;;;;;;;20904690;28;20494;-68
2022/11/15 05:05:29;;;;;;;1.93;0.80;;;;;;;;;;20906358;28;20245;-67
2022/11/15 05:15:50;;;;;;;2.03;1.07;;;;;;;;;;20898648;28;20260;-67
2022/11/15 05:26:10;;;;;;;2.03;1.00;;;;;;;;;;20904323;28;20235;-68
2022/11/15 05:36:37;;;;;;;1.70;1.00;;;;;;;;;;20904940;28;20283;-67
2022/11/15 05:46:58;;;;;;;0.93;0.70;;;9.00;99.90;;;;;;20904061;28;20221;-67
2022/11/15 05:57:18;;;;;;;1.60;0.70;;;;;;;;;;20903133;28;20234;-67
2022/11/15 06:07:39;;;;;;;5.27;2.33;;;;;;;;;;20898787;28;20716;-67
2022/11/15 06:17:59;;;;;;;6.23;3.33;;;;;;;;;;20899558;28;20217;-67
2022/11/15 06:28:20;;;;;;;1.23;0.90;;;;;;;;;;20901460;28;20213;-67
2022/11/15 06:38:40;;;;;;;1.13;0.73;;;;;;;;;;20885195;28;20630;-67
2022/11/15 06:49:01;;;;;;;1.77;0.93;;;;;;;;;;20892016;28;20225;-65
2022/11/15 06:59:21;;;;;;;1.07;0.63;;;;;;;;;;20900112;28;20236;-65
2022/11/15 07:09:42;;;;;;;3.33;1.00;;;;;;;;;;20899852;28;20217;-67
2022/11/15 07:20:03;;;;;;;1.50;0.80;;;;;;;;;;20898876;28;20218;-68
2022/11/15 07:30:24;;;;;;;1.80;0.93;;;8.90;99.90;;;;;;20902550;28;20206;-67
2022/11/15 07:40:44;;;;;;;2.30;1.10;;;;;;;;;;20914896;28;20239;-67
2022/11/15 07:51:04;;;;;;;2.13;1.27;;;;;;;;;;20905601;28;20213;-71
2022/11/15 08:01:24;;;;;;;4.03;1.57;;;;;;;;;;20904435;28;20217;-67
2022/11/15 08:11:45;;;;;;;1.63;1.03;;;;;;;;;;20910314;28;20206;-67
2022/11/15 08:22:05;;;;;;;2.63;1.27;;;;;;;;;;20893016;28;20705;-67
2022/11/15 08:32:25;;;;;;;1.00;0.67;;;;;;;;;;20910174;28;20194;-67
2022/11/15 08:42:47;;;;;;;1.43;0.97;;;;;;;;;;20880718;28;20241;-66
2022/11/15 08:53:08;;;;;;;1.90;0.87;;;9.20;99.90;;;;;;20897798;28;20264;-67
2022/11/15 09:03:29;;;;;;;2.33;1.37;;;;;;;;;;20905295;28;20225;-67
2022/11/15 09:13:49;;;;;;;3.03;1.33;;;9.30;99.90;;;;;;20957804;28;20263;-67
2022/11/15 09:24:10;;;;;;;1.20;0.93;;;;;;;;;;20901898;28;20288;-67
2022/11/15 09:34:30;;;;;;;1.80;0.97;;;;;;;;;;20917814;22;20686;-64
2022/11/15 09:44:51;;;;;;;1.50;0.90;;;;;;;;;;20786932;28;20284;-64
2022/11/15 09:55:21;;;;;;;1.50;0.70;;;;;;;;;;20796485;28;20648;-64
2022/11/15 10:05:25;;;;;;;1.77;1.07;;;9.80;99.90;;;;;;20773238;28;20268;-64
2022/11/15 10:15:28;;;;;;;2.07;1.20;;;;;;;;;;20755206;28;20232;-64
2022/11/15 10:25:32;;;;;;;1.53;0.93;;;9.90;99.90;;;;;;20754195;28;20283;-64
2022/11/15 10:35:34;;;;;;;2.27;1.13;;;;;;;;;;20801963;28;20230;-64
2022/11/15 10:45:37;;;;;;;2.30;1.10;;;10.10;99.90;;;;;;20769922;28;20222;-64
2022/11/15 10:55:41;;;;;;;3.43;1.30;;;;;;;;;;20752903;28;20240;-64
2022/11/15 11:05:43;;;;;;;1.20;0.80;;;;;;;;;;20771211;28;20222;-64
2022/11/15 11:15:47;;;;;;;2.17;0.87;;;;;;;;;;20785230;28;20300;-64
2022/11/15 11:26:04;;;;;;;2.27;1.10;;;10.80;99.90;;;;;;20800836;28;20771;-64
2022/11/15 11:36:07;;;;;;;1.43;0.83;;;;;;;;;;20798906;28;20271;-64
2022/11/15 11:46:19;;;;;;;1.33;0.90;;;;;;;;;;20815260;28;20226;-63
2022/11/15 11:56:26;;;;;;;1.40;0.93;;;11.20;99.90;;;;;;20801241;28;20206;-64
2022/11/15 12:06:42;;;;;;;1.00;0.80;;;;;;;;;;20800012;28;20218;-64
2022/11/15 12:16:44;;;;;;;1.33;0.70;;;;;;;;;;20797944;28;20549;-65
2022/11/15 12:26:57;;;;;;;1.70;1.03;;;11.20;99.90;;;;;;20766374;28;20215;-64
2022/11/15 12:36:59;;;;;;;1.30;0.70;;;;;;;;;;20766405;28;20276;-64
2022/11/15 12:47:03;;;;;;;1.73;0.80;;;;;;;;;;20764675;28;20698;-64
2022/11/15 12:57:06;;;;;;;1.30;0.77;;;;;;;;;;20812416;28;20645;-64
2022/11/15 13:07:08;;;;;;;1.23;0.87;;;;;;;;;;20780746;28;20647;-64
2022/11/15 13:17:16;;;;;;;1.20;0.80;;;11.40;99.90;;;;;;20837009;28;20662;-64
2022/11/15 13:27:19;;;;;;;0.70;0.57;;;11.30;99.90;;;;;;20788887;28;20763;-64
2022/11/15 13:37:22;;;;;;;1.60;0.97;;;;;;;;;;20803753;28;20257;-64
2022/11/15 13:47:29;;;;;;;2.10;0.90;;;11.20;99.90;;;;;;20802359;28;20227;-64
2022/11/15 13:57:51;;;;;;;1.90;1.23;;;;;;;;;;20769724;28;20562;-64
2022/11/15 14:07:58;;;;;;;2.80;1.00;;;11.20;99.90;;;;;;20767658;28;20227;-64
2022/11/15 14:18:00;;;;;;;2.83;1.00;;;;;;;;;;20751796;28;20292;-64
2022/11/15 14:28:11;;;;;;;1.80;1.07;;;;;;;;;;20768637;28;20391;-64
2022/11/15 14:38:13;;;;;;;1.83;1.03;;;;;;;;;;20780088;28;20226;-64
2022/11/15 14:48:15;;;;;;;3.17;1.23;;;;;;;;;;20766547;28;20256;-64
2022/11/15 14:58:18;;;;;;;2.63;1.60;;;;;;;;;;20798088;28;20767;-63
2022/11/15 15:08:20;;;;;;;4.57;1.37;;;;;;;;;;20763546;28;20238;-62
2022/11/15 15:18:22;;;;;;;2.40;1.00;;;;;;;;;;20799868;28;20284;-63
2022/11/15 15:28:24;;;;;;;2.33;1.23;;;;;;;;;;20768804;28;20637;-63
2022/11/15 15:38:26;;;;;;;1.87;1.30;;;;;;;;;;20866707;22;20562;-67
2022/11/15 15:48:28;;;;;;;1.87;1.00;;;;;;;;;;20982574;28;20221;-67
2022/11/15 15:58:31;;;;;;;1.93;1.00;;;;;;;;;;20993325;28;20290;-67
2022/11/15 16:08:33;;;;;;;3.43;1.87;;;;;;;;;;20995877;28;20229;-67
2022/11/15 16:18:35;;;;;;;1.37;1.00;;;;;;;;;;20995971;28;20270;-68
2022/11/15 16:28:37;;;;;;;3.60;1.10;;;;;;;;;;20993945;28;20244;-68
2022/11/15 16:38:39;;;;;;;1.63;1.00;;;;;;;;;;20994240;28;20225;-68
2022/11/15 16:48:40;;;;;;;4.20;2.53;;;;;;;;;;20986721;28;20271;-68
2022/11/15 16:58:42;;;;;;;2.37;1.57;;;;;;;;;;20983096;28;20572;-67
2022/11/15 17:08:45;;;;;;;4.50;1.20;;;;;;;;;;21010859;28;20234;-68
2022/11/15 17:18:50;;;;;;;7.87;5.20;;;10.80;99.90;;;;;;20985609;28;20197;-68
2022/11/15 17:28:55;;;;;;;5.10;2.40;;;;;;;;;;20986452;28;20262;-68
2022/11/15 17:38:57;;;;;;;7.90;3.63;;;;;;;;;;20984707;28;20217;-67
2022/11/15 17:48:59;;;;;;;5.67;4.00;;;;;;;;;;20967229;28;20213;-68
2022/11/15 17:59:01;;;;;;;6.77;3.50;;;;;;;;;;20962122;28;20260;-67
2022/11/15 18:09:03;;;;;;;3.57;2.27;;;;;;;;;;20969816;28;20245;-67
2022/11/15 18:19:10;;;;;;;4.27;1.53;;;;;;;;;;20968143;28;20289;-67
2022/11/15 18:29:11;;;;;;;4.03;2.50;;;;;;;;;;20972042;28;20240;-67
2022/11/15 18:39:15;;;;;;;4.43;2.33;;;;;;;;;;20967822;28;20320;-68
2022/11/15 18:49:19;;;;;;;3.23;1.80;;;;;;;;;;20972829;28;20233;-67
2022/11/15 18:59:20;;;;;;;2.43;1.40;;;;;;;;;;20965824;28;20684;-67
2022/11/15 19:09:26;;;;;;;1.60;1.20;;;;;;;;;;20972983;28;20282;-67
2022/11/15 19:19:28;;;;;;;2.07;1.20;;;;;;;;;;20973752;28;20351;-67
2022/11/15 19:29:29;;;;;;;6.00;2.00;;;;;;;;;;20984619;28;20270;-67
2022/11/15 19:39:31;;;;;;;2.50;1.70;;;;;;;;;;20990780;28;20266;-68
2022/11/15 19:49:33;;;;;;;4.93;3.40;;;;;;;;;;20986509;28;20232;-68
2022/11/15 19:59:35;;;;;;;3.50;2.40;;;;;;;;;;20964987;28;20233;-66
2022/11/15 20:09:37;;;;;;;6.30;2.70;;;;;;;;;;20993653;28;20695;-68
2022/11/15 20:19:39;;;;;;;5.27;3.03;;;;;;;;;;20992576;28;20700;-68
2022/11/15 20:29:42;;;;;;;4.60;2.73;;;;;;;;;;20991686;28;20727;-67
2022/11/15 20:39:44;;;;;;;5.90;3.90;;;;;;;;;;20991753;28;20221;-68
2022/11/15 20:49:46;;;;;;;5.40;4.13;;;;;;;;;;20979731;28;20221;-67
2022/11/15 20:59:48;;;;;;;8.90;5.37;;;;;;;;;;20988391;28;20229;-67
2022/11/15 21:20:11;;;;;;;4.23;1.73;;;;;;;;;;20986707;28;20229;-67
2022/11/15 21:30:13;;;;;;;2.10;1.30;;;;;;;;;;20980180;28;20225;-67
2022/11/15 21:40:15;;;;;;;1.83;1.17;;;;;;;;;;21032441;22;20297;-63
2022/11/15 21:50:18;;;;;;;3.33;2.10;;;;;;;;;;21035055;28;20513;-63
2022/11/15 22:10:41;;;;;;;1.43;1.00;;;;;;;;;;21065833;28;20281;-63
2022/11/15 22:20:58;;;;;;;2.50;1.77;;;10.30;99.90;;;;;;21020447;28;20548;-62
2022/11/15 22:31:00;;;;;;;3.03;1.60;;;;;;;;;;21052956;28;20221;-62
2022/11/15 22:41:03;;;;;;;4.07;1.57;;;;;;;;;;21051946;28;20285;-62
2022/11/15 22:51:06;;;;;;;2.83;1.63;;;10.60;99.90;;;;;;21035423;28;20254;-62
2022/11/15 23:01:20;;;;;;;1.97;1.30;;;10.60;99.90;;;;;;21017795;28;20269;-63
2022/11/15 23:42:25;;;;;;;4.27;1.33;;;;;;;;;;21036273;28;20263;-63
2022/11/15 23:52:27;;;;;;;2.23;1.53;;;;;;;;;;21016998;28;20312;-63
